Richmond, VA (23229)

7:22 AM EST on February 06, 2016 (GMT -0500)
Near West End | | Change Station
CLOSE
Current Station
Personal Weather Station
Location: Richmond, VA
Elevation: 246 ft
Nearby Weather Stations
Active Advisory: Hydrologic Statement

Elev 246 ft 37.57 °N, 77.50 °W | Updated 10 seconds ago

Clear
Clear
27.0 °F
Feels Like 27 °F
N
0.0
Wind Variable Wind from NW
Gusts 0.0 mph

Today
High -- | Low -- °F
--% Chance of Precip.
Yesterday
High -- | Low -- °F
Precip. -- in
Pressure 30.48 in
Visibility 10.0 miles
Clouds Few 23000 ft
Mostly Cloudy 30000 ft
Windchill 27 °F
Dew Point 24 °F
Humidity 88%
Rainfall 0.00 in
Snow Depth Not available.
7:09 AM 5:39 PM
Waning Crescent, 6% visible
METAR KRIC 061154Z 00000KT 10SM FEW230 BKN300 M03/M06 A3045 RMK AO2 SLP319 T10281056 11022 21039 51010
Pressure 30.48 in
Visibility 10.0 miles
Clouds Few 23000 ft
Mostly Cloudy 30000 ft
Windchill 27 °F
Dew Point 24 °F
Humidity 88%
Rainfall 0.00 in
Snow Depth Not available.
7:09 AM 5:39 PM
Waning Crescent, 6% visible
METAR KRIC 061154Z 00000KT 10SM FEW230 BKN300 M03/M06 A3045 RMK AO2 SLP319 T10281056 11022 21039 51010

10-Day Weather Forecast

Almanac

Astronomy

Feb. 06, 2016 Rise Set
Actual Time
Civil Twilight
Nautical Twilight
Astronomical Twilight
Moon
Length of Visible Light
Length of Day
Tomorrow will be .
, % of the Moon is Illuminated

Today's Extremes

State Highs State Lows

Community

WunderPhotos

Upload Photos

1,890,944 photos uploaded!

WunderBlog® & News

Nearby

Air Quality

  Air Quality AQ Index Pollutant
Not available.

Snow Depth

Station Depth Elevation

Earthquake Activity

City Distance Mag. Time & Date
Minimum magnitude displayed is 2.5.

Coastal Water Temperatures

Place Temperature

Stations

Nearby Weather Stations

Station Location Temp. Windchill Dew Point Humidity Wind Precip. Elev Updated Type
                   

Watches & Warnings

Hydrologic Statement
Issued: 4:31 AM EST Feb. 6, 2016 – National Weather Service

The Flood Warning is cancelled for
the James River at Richmond Westham.

* At 03:30 am Saturday the stage was 11.7 feet.
* No flooding is currently forecast.
* Flood stage is 12.0 feet.
* Forecast... the river will continue to fall to around 11.0 feet
later this morning.
* At 12.0 feet... flood stage. Minor flooding along both banks, no
damage at this level.
This river level is comparable to a previous crest of 10.6 feet on
Dec 25 2015.


Lat... Lon 3770 7780 3756 7744 3747 7749 3753 7770
      3760 7785